sensor_id;sensor_type;location;lat;lon;timestamp;pressure;altitude;pressure_sealevel;temperature;humidity
17230;BME280;8731;50.364;8.958;2022-12-07T00:01:55;100193.59;;;4.21;92.13
17230;BME280;8731;50.364;8.958;2022-12-07T00:06:18;100193.59;;;4.14;91.25
17230;BME280;8731;50.364;8.958;2022-12-07T00:10:42;100180.66;;;4.04;92.17
17230;BME280;8731;50.364;8.958;2022-12-07T00:15:06;100180.81;;;4.20;92.69
17230;BME280;8731;50.364;8.958;2022-12-07T00:19:29;100182.06;;;4.23;91.94
17230;BME280;8731;50.364;8.958;2022-12-07T00:23:52;100181.16;;;4.23;92.01
17230;BME280;8731;50.364;8.958;2022-12-07T00:28:17;100182.44;;;4.19;92.25
17230;BME280;8731;50.364;8.958;2022-12-07T00:32:39;100170.19;;;4.22;92.58
17230;BME280;8731;50.364;8.958;2022-12-07T00:37:01;100172.16;;;4.25;91.96
17230;BME280;8731;50.364;8.958;2022-12-07T00:41:26;100163.91;;;4.26;92.27
17230;BME280;8731;50.364;8.958;2022-12-07T00:45:50;100153.84;;;4.26;91.50
17230;BME280;8731;50.364;8.958;2022-12-07T00:50:13;100153.09;;;4.27;91.58
17230;BME280;8731;50.364;8.958;2022-12-07T00:54:35;100150.38;;;4.25;92.14
17230;BME280;8731;50.364;8.958;2022-12-07T00:59:00;100145.72;;;4.28;92.59
17230;BME280;8731;50.364;8.958;2022-12-07T01:03:25;100146.06;;;4.31;91.37
17230;BME280;8731;50.364;8.958;2022-12-07T01:07:47;100144.44;;;4.32;92.04
17230;BME280;8731;50.364;8.958;2022-12-07T01:12:10;100138.88;;;4.27;92.67
17230;BME280;8731;50.364;8.958;2022-12-07T01:16:32;100139.94;;;4.37;92.70
17230;BME280;8731;50.364;8.958;2022-12-07T01:21:00;100141.75;;;4.38;93.08
17230;BME280;8731;50.364;8.958;2022-12-07T01:25:24;100141.03;;;4.31;92.57
17230;BME280;8731;50.364;8.958;2022-12-07T01:29:46;100145.31;;;4.40;93.42
17230;BME280;8731;50.364;8.958;2022-12-07T01:34:09;100139.22;;;4.38;93.21
17230;BME280;8731;50.364;8.958;2022-12-07T01:38:33;100135.25;;;4.40;92.58
17230;BME280;8731;50.364;8.958;2022-12-07T01:42:57;100136.66;;;4.45;92.31
17230;BME280;8731;50.364;8.958;2022-12-07T01:47:19;100136.50;;;4.43;92.20
17230;BME280;8731;50.364;8.958;2022-12-07T01:51:43;100134.31;;;4.46;92.92
17230;BME280;8731;50.364;8.958;2022-12-07T01:56:11;100134.16;;;4.45;92.56
17230;BME280;8731;50.364;8.958;2022-12-07T02:00:40;100124.06;;;4.45;93.32
17230;BME280;8731;50.364;8.958;2022-12-07T02:05:04;100129.63;;;4.49;93.09
17230;BME280;8731;50.364;8.958;2022-12-07T02:09:34;100120.28;;;4.48;92.89
17230;BME280;8731;50.364;8.958;2022-12-07T02:13:58;100121.53;;;4.45;93.52
17230;BME280;8731;50.364;8.958;2022-12-07T02:18:25;100111.47;;;4.52;92.93
17230;BME280;8731;50.364;8.958;2022-12-07T02:23:09;100118.66;;;4.56;93.71
17230;BME280;8731;50.364;8.958;2022-12-07T02:27:52;100101.38;;;4.45;92.79
17230;BME280;8731;50.364;8.958;2022-12-07T02:32:26;100098.88;;;4.52;92.80
17230;BME280;8731;50.364;8.958;2022-12-07T02:36:59;100097.25;;;4.52;92.62
17230;BME280;8731;50.364;8.958;2022-12-07T02:41:27;100102.47;;;4.40;93.36
17230;BME280;8731;50.364;8.958;2022-12-07T02:46:01;100097.03;;;4.58;93.44
17230;BME280;8731;50.364;8.958;2022-12-07T02:50:29;100099.56;;;4.58;92.84
17230;BME280;8731;50.364;8.958;2022-12-07T02:54:52;100092.03;;;4.51;92.44
17230;BME280;8731;50.364;8.958;2022-12-07T02:59:29;100106.38;;;4.59;92.67
17230;BME280;8731;50.364;8.958;2022-12-07T03:04:16;100105.84;;;4.61;93.25
17230;BME280;8731;50.364;8.958;2022-12-07T03:09:00;100102.25;;;4.59;92.88
17230;BME280;8731;50.364;8.958;2022-12-07T03:13:39;100104.03;;;4.60;92.55
17230;BME280;8731;50.364;8.958;2022-12-07T03:18:09;100090.88;;;4.63;92.35
17230;BME280;8731;50.364;8.958;2022-12-07T03:22:37;100086.06;;;4.57;93.51
17230;BME280;8731;50.364;8.958;2022-12-07T03:27:13;100078.84;;;4.60;92.95
17230;BME280;8731;50.364;8.958;2022-12-07T03:31:43;100085.47;;;4.67;92.81
17230;BME280;8731;50.364;8.958;2022-12-07T03:36:17;100082.03;;;4.67;93.00
17230;BME280;8731;50.364;8.958;2022-12-07T03:40:58;100082.38;;;4.70;92.21
17230;BME280;8731;50.364;8.958;2022-12-07T03:45:31;100081.84;;;4.72;93.18
17230;BME280;8731;50.364;8.958;2022-12-07T03:50:09;100075.72;;;4.70;93.17
17230;BME280;8731;50.364;8.958;2022-12-07T03:54:43;100081.31;;;4.75;93.00
17230;BME280;8731;50.364;8.958;2022-12-07T03:59:14;100080.59;;;4.76;92.74
17230;BME280;8731;50.364;8.958;2022-12-07T04:03:42;100072.28;;;4.77;92.65
17230;BME280;8731;50.364;8.958;2022-12-07T04:08:06;100066.91;;;4.74;93.65
17230;BME280;8731;50.364;8.958;2022-12-07T04:12:29;100071.56;;;4.78;92.62
17230;BME280;8731;50.364;8.958;2022-12-07T04:16:53;100078.75;;;4.82;92.67
17230;BME280;8731;50.364;8.958;2022-12-07T04:21:18;100074.59;;;4.82;92.42
17230;BME280;8731;50.364;8.958;2022-12-07T04:25:40;100065.59;;;4.84;93.11
17230;BME280;8731;50.364;8.958;2022-12-07T04:30:04;100061.25;;;4.83;93.31
17230;BME280;8731;50.364;8.958;2022-12-07T04:34:27;100063.97;;;4.85;92.97
17230;BME280;8731;50.364;8.958;2022-12-07T04:38:52;100070.78;;;4.86;92.86
17230;BME280;8731;50.364;8.958;2022-12-07T04:43:15;100064.69;;;4.84;93.45
17230;BME280;8731;50.364;8.958;2022-12-07T04:47:38;100059.97;;;4.87;93.09
17230;BME280;8731;50.364;8.958;2022-12-07T04:52:00;100058.69;;;4.90;93.78
17230;BME280;8731;50.364;8.958;2022-12-07T04:56:24;100058.69;;;4.90;93.57
17230;BME280;8731;50.364;8.958;2022-12-07T05:00:47;100059.97;;;4.87;93.66
17230;BME280;8731;50.364;8.958;2022-12-07T05:05:10;100057.25;;;4.92;93.89
17230;BME280;8731;50.364;8.958;2022-12-07T05:09:39;100050.75;;;4.94;93.39
17230;BME280;8731;50.364;8.958;2022-12-07T05:14:05;100059.38;;;4.97;93.70
17230;BME280;8731;50.364;8.958;2022-12-07T05:18:29;100047.50;;;4.96;93.18
17230;BME280;8731;50.364;8.958;2022-12-07T05:22:51;100063.88;;;4.99;93.08
17230;BME280;8731;50.364;8.958;2022-12-07T05:27:15;100059.56;;;4.98;93.24
17230;BME280;8731;50.364;8.958;2022-12-07T05:31:39;100061.72;;;4.95;93.31
17230;BME280;8731;50.364;8.958;2022-12-07T05:36:01;100052.72;;;4.97;93.23
17230;BME280;8731;50.364;8.958;2022-12-07T05:40:25;100052.19;;;4.92;94.07
17230;BME280;8731;50.364;8.958;2022-12-07T05:44:48;100064.06;;;4.93;93.81
17230;BME280;8731;50.364;8.958;2022-12-07T05:49:11;100054.88;;;4.94;93.80
17230;BME280;8731;50.364;8.958;2022-12-07T05:53:34;100057.25;;;4.92;93.90
17230;BME280;8731;50.364;8.958;2022-12-07T05:57:57;100059.38;;;4.97;93.82
17230;BME280;8731;50.364;8.958;2022-12-07T06:02:37;100052.53;;;4.96;94.00
17230;BME280;8731;50.364;8.958;2022-12-07T06:07:01;100049.50;;;4.91;94.34
17230;BME280;8731;50.364;8.958;2022-12-07T06:11:24;100042.44;;;4.96;93.92
17230;BME280;8731;50.364;8.958;2022-12-07T06:16:04;100051.09;;;4.98;94.15
17230;BME280;8731;50.364;8.958;2022-12-07T06:20:27;100054.31;;;4.97;94.16
17230;BME280;8731;50.364;8.958;2022-12-07T06:24:51;100050.38;;;4.99;94.47
17230;BME280;8731;50.364;8.958;2022-12-07T06:29:14;100056.50;;;5.01;94.56
17230;BME280;8731;50.364;8.958;2022-12-07T06:33:38;100059.00;;;5.01;94.62
17230;BME280;8731;50.364;8.958;2022-12-07T06:38:00;100063.00;;;4.99;94.23
17230;BME280;8731;50.364;8.958;2022-12-07T06:42:24;100060.09;;;4.96;94.67
17230;BME280;8731;50.364;8.958;2022-12-07T06:46:47;100061.19;;;4.98;94.72
17230;BME280;8731;50.364;8.958;2022-12-07T06:51:09;100061.53;;;5.01;94.86
17230;BME280;8731;50.364;8.958;2022-12-07T06:55:32;100061.91;;;4.97;94.77
17230;BME280;8731;50.364;8.958;2022-12-07T06:59:57;100059.00;;;5.01;94.39
17230;BME280;8731;50.364;8.958;2022-12-07T07:04:19;100062.09;;;4.98;95.01
17230;BME280;8731;50.364;8.958;2022-12-07T07:08:41;100058.47;;;4.96;94.84
17230;BME280;8731;50.364;8.958;2022-12-07T07:13:04;100057.56;;;4.96;94.72
17230;BME280;8731;50.364;8.958;2022-12-07T07:17:28;100061.91;;;4.97;94.55
17230;BME280;8731;50.364;8.958;2022-12-07T07:21:50;100062.63;;;4.96;94.49
17230;BME280;8731;50.364;8.958;2022-12-07T07:26:12;100077.56;;;5.01;94.70
17230;BME280;8731;50.364;8.958;2022-12-07T07:30:35;100071.63;;;5.01;94.31
17230;BME280;8731;50.364;8.958;2022-12-07T07:34:58;100070.84;;;5.09;94.56
17230;BME280;8731;50.364;8.958;2022-12-07T07:39:21;100079.47;;;5.11;94.76
17230;BME280;8731;50.364;8.958;2022-12-07T07:43:43;100076.56;;;5.15;94.85
17230;BME280;8731;50.364;8.958;2022-12-07T07:48:06;100081.22;;;5.19;95.05
17230;BME280;8731;50.364;8.958;2022-12-07T07:52:30;100079.97;;;5.22;95.45
17230;BME280;8731;50.364;8.958;2022-12-07T07:56:53;100083.91;;;5.28;94.99
17230;BME280;8731;50.364;8.958;2022-12-07T08:01:16;100089.44;;;5.32;95.28
17230;BME280;8731;50.364;8.958;2022-12-07T08:05:39;100090.53;;;5.34;95.09
17230;BME280;8731;50.364;8.958;2022-12-07T08:10:04;100085.25;;;5.40;95.46
17230;BME280;8731;50.364;8.958;2022-12-07T08:14:28;100082.88;;;5.41;94.82
17230;BME280;8731;50.364;8.958;2022-12-07T08:18:50;100088.31;;;5.44;94.46
17230;BME280;8731;50.364;8.958;2022-12-07T08:23:13;100086.84;;;5.46;94.19
17230;BME280;8731;50.364;8.958;2022-12-07T08:27:36;100090.59;;;5.50;94.41
17230;BME280;8731;50.364;8.958;2022-12-07T08:31:59;100084.81;;;5.51;93.75
17230;BME280;8731;50.364;8.958;2022-12-07T08:36:21;100083.03;;;5.73;94.08
17230;BME280;8731;50.364;8.958;2022-12-07T08:40:44;100083.25;;;5.90;93.92
17230;BME280;8731;50.364;8.958;2022-12-07T08:45:11;100086.06;;;6.00;93.01
17230;BME280;8731;50.364;8.958;2022-12-07T08:49:38;100085.25;;;6.08;91.97
17230;BME280;8731;50.364;8.958;2022-12-07T08:54:04;100084.69;;;6.11;91.52
17230;BME280;8731;50.364;8.958;2022-12-07T08:58:32;100082.69;;;6.15;91.14
17230;BME280;8731;50.364;8.958;2022-12-07T09:02:57;100087.16;;;6.34;91.16
17230;BME280;8731;50.364;8.958;2022-12-07T09:07:19;100082.34;;;6.60;90.40
17230;BME280;8731;50.364;8.958;2022-12-07T09:11:42;100087.47;;;7.00;89.73
17230;BME280;8731;50.364;8.958;2022-12-07T09:16:05;100089.38;;;7.43;87.37
17230;BME280;8731;50.364;8.958;2022-12-07T09:20:29;100077.25;;;7.97;88.77
17230;BME280;8731;50.364;8.958;2022-12-07T09:24:51;100079.84;;;8.56;85.33
17230;BME280;8731;50.364;8.958;2022-12-07T09:29:14;100081.78;;;8.93;83.40
17230;BME280;8731;50.364;8.958;2022-12-07T09:33:53;100078.63;;;8.96;80.47
17230;BME280;8731;50.364;8.958;2022-12-07T09:38:19;100076.03;;;9.39;79.76
17230;BME280;8731;50.364;8.958;2022-12-07T09:42:44;100070.34;;;9.42;79.23
17230;BME280;8731;50.364;8.958;2022-12-07T09:47:10;100074.41;;;9.22;77.26
17230;BME280;8731;50.364;8.958;2022-12-07T09:51:33;100072.03;;;9.33;77.85
17230;BME280;8731;50.364;8.958;2022-12-07T09:55:56;100075.81;;;9.02;78.06
17230;BME280;8731;50.364;8.958;2022-12-07T10:00:21;100081.75;;;9.19;78.63
17230;BME280;8731;50.364;8.958;2022-12-07T10:04:45;100073.69;;;8.98;77.95
17230;BME280;8731;50.364;8.958;2022-12-07T10:09:09;100074.00;;;8.57;78.74
17230;BME280;8731;50.364;8.958;2022-12-07T10:13:39;100072.50;;;8.68;78.11
17230;BME280;8731;50.364;8.958;2022-12-07T10:18:02;100063.84;;;8.40;78.00
17230;BME280;8731;50.364;8.958;2022-12-07T10:22:25;100057.19;;;8.25;78.40
17230;BME280;8731;50.364;8.958;2022-12-07T10:26:51;100054.81;;;8.18;78.56
17230;BME280;8731;50.364;8.958;2022-12-07T10:31:17;100050.34;;;8.24;78.75
17230;BME280;8731;50.364;8.958;2022-12-07T10:35:43;100050.63;;;8.10;78.26
17230;BME280;8731;50.364;8.958;2022-12-07T10:40:24;100033.88;;;7.94;78.34
17230;BME280;8731;50.364;8.958;2022-12-07T10:44:50;100036.63;;;7.80;77.38
17230;BME280;8731;50.364;8.958;2022-12-07T10:55:04;100031.41;;;7.70;77.73
17230;BME280;8731;50.364;8.958;2022-12-07T11:00:00;100031.97;;;7.59;78.15
17230;BME280;8731;50.364;8.958;2022-12-07T11:04:35;100025.72;;;7.64;78.56
17230;BME280;8731;50.364;8.958;2022-12-07T11:09:16;100021.84;;;7.59;78.46
17230;BME280;8731;50.364;8.958;2022-12-07T11:14:05;100015.81;;;7.50;79.96
17230;BME280;8731;50.364;8.958;2022-12-07T11:18:45;100012.09;;;7.55;79.04
17230;BME280;8731;50.364;8.958;2022-12-07T11:23:33;100013.41;;;7.43;78.66
17230;BME280;8731;50.364;8.958;2022-12-07T11:28:18;100007.75;;;7.45;79.23
17230;BME280;8731;50.364;8.958;2022-12-07T11:33:02;100007.44;;;7.42;79.46
17230;BME280;8731;50.364;8.958;2022-12-07T11:37:35;100008.94;;;7.49;79.77
17230;BME280;8731;50.364;8.958;2022-12-07T11:42:03;99999.41;;;7.46;79.78
17230;BME280;8731;50.364;8.958;2022-12-07T11:46:42;99983.75;;;7.42;79.58
17230;BME280;8731;50.364;8.958;2022-12-07T11:51:10;99976.91;;;7.41;79.85
17230;BME280;8731;50.364;8.958;2022-12-07T11:55:41;99970.53;;;7.53;80.06
17230;BME280;8731;50.364;8.958;2022-12-07T12:00:14;99970.72;;;7.30;79.55
17230;BME280;8731;50.364;8.958;2022-12-07T12:04:47;99978.81;;;7.34;79.06
17230;BME280;8731;50.364;8.958;2022-12-07T12:09:18;99974.88;;;7.21;78.88
17230;BME280;8731;50.364;8.958;2022-12-07T12:14:17;99981.16;;;7.33;78.65
17230;BME280;8731;50.364;8.958;2022-12-07T12:19:17;99968.25;;;7.38;78.41
17230;BME280;8731;50.364;8.958;2022-12-07T12:23:50;99971.41;;;7.45;79.05
17230;BME280;8731;50.364;8.958;2022-12-07T12:28:23;99959.47;;;7.44;79.32
17230;BME280;8731;50.364;8.958;2022-12-07T12:32:48;99959.41;;;7.26;78.62
17230;BME280;8731;50.364;8.958;2022-12-07T12:37:41;99950.53;;;7.38;78.63
17230;BME280;8731;50.364;8.958;2022-12-07T12:42:18;99947.84;;;7.46;78.56
17230;BME280;8731;50.364;8.958;2022-12-07T12:46:50;99947.56;;;7.43;78.14
17230;BME280;8731;50.364;8.958;2022-12-07T12:51:36;99939.22;;;7.44;78.20
17230;BME280;8731;50.364;8.958;2022-12-07T12:56:28;99953.91;;;7.30;77.95
17230;BME280;8731;50.364;8.958;2022-12-07T13:06:34;99950.13;;;7.18;77.19
17230;BME280;8731;50.364;8.958;2022-12-07T13:11:18;99954.38;;;7.35;77.66
17230;BME280;8731;50.364;8.958;2022-12-07T13:15:51;99952.00;;;7.36;78.14
17230;BME280;8731;50.364;8.958;2022-12-07T13:20:40;99946.63;;;7.33;77.44
17230;BME280;8731;50.364;8.958;2022-12-07T13:25:10;99939.81;;;7.41;77.04
17230;BME280;8731;50.364;8.958;2022-12-07T13:29:39;99938.16;;;7.42;77.69
17230;BME280;8731;50.364;8.958;2022-12-07T13:34:28;99937.41;;;7.34;75.94
17230;BME280;8731;50.364;8.958;2022-12-07T13:38:54;99932.28;;;7.25;74.91
17230;BME280;8731;50.364;8.958;2022-12-07T13:43:19;99930.84;;;7.36;74.62
17230;BME280;8731;50.364;8.958;2022-12-07T13:47:46;99926.53;;;7.35;74.23
17230;BME280;8731;50.364;8.958;2022-12-07T13:52:15;99922.38;;;7.53;74.77
17230;BME280;8731;50.364;8.958;2022-12-07T13:56:39;99919.13;;;7.54;74.28
17230;BME280;8731;50.364;8.958;2022-12-07T14:01:05;99920.66;;;7.60;74.72
17230;BME280;8731;50.364;8.958;2022-12-07T14:05:28;99920.16;;;7.56;74.86
17230;BME280;8731;50.364;8.958;2022-12-07T14:15:27;99919.13;;;7.54;74.22
17230;BME280;8731;50.364;8.958;2022-12-07T14:19:54;99915.38;;;7.50;74.99
17230;BME280;8731;50.364;8.958;2022-12-07T14:24:19;99918.50;;;7.39;74.67
17230;BME280;8731;50.364;8.958;2022-12-07T14:28:43;99910.00;;;7.38;74.49
17230;BME280;8731;50.364;8.958;2022-12-07T14:33:08;99911.97;;;7.50;75.60
17230;BME280;8731;50.364;8.958;2022-12-07T14:37:32;99908.53;;;7.49;76.08
17230;BME280;8731;50.364;8.958;2022-12-07T14:41:55;99903.44;;;7.41;76.65
17230;BME280;8731;50.364;8.958;2022-12-07T14:46:18;99891.63;;;7.32;77.85
17230;BME280;8731;50.364;8.958;2022-12-07T14:50:42;99886.00;;;7.35;78.09
17230;BME280;8731;50.364;8.958;2022-12-07T14:55:18;99893.84;;;7.21;78.10
17230;BME280;8731;50.364;8.958;2022-12-07T15:00:02;99896.34;;;7.12;78.45
17230;BME280;8731;50.364;8.958;2022-12-07T15:04:25;99896.91;;;7.09;78.70
17230;BME280;8731;50.364;8.958;2022-12-07T15:08:47;99891.25;;;7.03;79.13
17230;BME280;8731;50.364;8.958;2022-12-07T15:13:11;99892.69;;;6.93;79.44
17230;BME280;8731;50.364;8.958;2022-12-07T15:17:50;99891.16;;;7.11;80.64
17230;BME280;8731;50.364;8.958;2022-12-07T15:22:13;99891.44;;;6.81;80.13
17230;BME280;8731;50.364;8.958;2022-12-07T15:26:35;99895.75;;;6.82;80.14
17230;BME280;8731;50.364;8.958;2022-12-07T15:31:00;99893.03;;;6.71;80.00
17230;BME280;8731;50.364;8.958;2022-12-07T15:35:22;99897.78;;;6.68;80.36
17230;BME280;8731;50.364;8.958;2022-12-07T15:39:45;99890.28;;;6.61;80.45
17230;BME280;8731;50.364;8.958;2022-12-07T15:44:09;99895.28;;;6.53;80.45
17230;BME280;8731;50.364;8.958;2022-12-07T15:48:51;99893.78;;;6.46;81.28
17230;BME280;8731;50.364;8.958;2022-12-07T15:53:14;99882.75;;;6.45;80.96
17230;BME280;8731;50.364;8.958;2022-12-07T15:57:38;99882.28;;;6.41;80.99
17230;BME280;8731;50.364;8.958;2022-12-07T16:02:00;99876.00;;;6.37;80.93
17230;BME280;8731;50.364;8.958;2022-12-07T16:06:24;99876.69;;;6.28;81.82
17230;BME280;8731;50.364;8.958;2022-12-07T16:10:47;99873.09;;;6.26;81.07
17230;BME280;8731;50.364;8.958;2022-12-07T16:15:10;99864.47;;;6.24;81.79
17230;BME280;8731;50.364;8.958;2022-12-07T16:19:33;99863.25;;;6.20;81.27
17230;BME280;8731;50.364;8.958;2022-12-07T16:23:58;99869.78;;;6.18;81.76
17230;BME280;8731;50.364;8.958;2022-12-07T16:28:21;99872.16;;;6.17;82.19
17230;BME280;8731;50.364;8.958;2022-12-07T16:32:44;99873.59;;;6.14;82.26
17230;BME280;8731;50.364;8.958;2022-12-07T16:37:06;99881.03;;;6.13;82.60
17230;BME280;8731;50.364;8.958;2022-12-07T16:41:30;99877.88;;;6.07;82.25
17230;BME280;8731;50.364;8.958;2022-12-07T16:45:53;99872.06;;;6.08;82.01
17230;BME280;8731;50.364;8.958;2022-12-07T16:50:15;99869.38;;;6.06;82.21
17230;BME280;8731;50.364;8.958;2022-12-07T16:54:38;99869.97;;;6.04;81.83
17230;BME280;8731;50.364;8.958;2022-12-07T16:59:02;99864.28;;;5.98;82.55
17230;BME280;8731;50.364;8.958;2022-12-07T17:03:24;99863.13;;;6.03;82.54
17230;BME280;8731;50.364;8.958;2022-12-07T17:07:47;99866.88;;;5.91;82.69
17230;BME280;8731;50.364;8.958;2022-12-07T17:12:09;99867.97;;;5.93;83.14
17230;BME280;8731;50.364;8.958;2022-12-07T17:16:33;99858.41;;;5.90;83.23
17230;BME280;8731;50.364;8.958;2022-12-07T17:21:02;99851.47;;;5.80;83.14
17230;BME280;8731;50.364;8.958;2022-12-07T17:25:37;99853.72;;;5.86;82.99
17230;BME280;8731;50.364;8.958;2022-12-07T17:29:59;99843.63;;;5.86;83.25
17230;BME280;8731;50.364;8.958;2022-12-07T17:34:25;99848.34;;;5.83;83.22
17230;BME280;8731;50.364;8.958;2022-12-07T17:38:48;99849.25;;;5.83;83.79
17230;BME280;8731;50.364;8.958;2022-12-07T17:43:11;99844.47;;;5.78;83.97
17230;BME280;8731;50.364;8.958;2022-12-07T17:47:33;99845.13;;;5.68;84.21
17230;BME280;8731;50.364;8.958;2022-12-07T17:51:57;99844.16;;;5.75;83.89
17230;BME280;8731;50.364;8.958;2022-12-07T17:56:37;99847.97;;;5.71;83.79
17230;BME280;8731;50.364;8.958;2022-12-07T18:01:00;99843.56;;;5.62;84.28
17230;BME280;8731;50.364;8.958;2022-12-07T18:05:22;99837.22;;;5.65;84.79
17230;BME280;8731;50.364;8.958;2022-12-07T18:09:46;99850.72;;;5.66;84.40
17230;BME280;8731;50.364;8.958;2022-12-07T18:14:09;99843.16;;;5.66;84.72
17230;BME280;8731;50.364;8.958;2022-12-07T18:18:32;99838.44;;;5.69;84.54
17230;BME280;8731;50.364;8.958;2022-12-07T18:22:54;99834.28;;;5.69;84.49
17230;BME280;8731;50.364;8.958;2022-12-07T18:27:19;99831.56;;;5.68;84.33
17230;BME280;8731;50.364;8.958;2022-12-07T18:31:41;99826.53;;;5.68;84.42
17230;BME280;8731;50.364;8.958;2022-12-07T18:36:06;99822.22;;;5.67;84.70
17230;BME280;8731;50.364;8.958;2022-12-07T18:40:30;99821.47;;;5.68;84.45
17230;BME280;8731;50.364;8.958;2022-12-07T18:44:53;99818.06;;;5.67;84.70
17230;BME280;8731;50.364;8.958;2022-12-07T18:49:16;99823.69;;;5.65;84.44
17230;BME280;8731;50.364;8.958;2022-12-07T18:53:38;99818.31;;;5.62;84.08
17230;BME280;8731;50.364;8.958;2022-12-07T18:58:01;99819.44;;;5.41;85.91
17230;BME280;8731;50.364;8.958;2022-12-07T19:02:25;99813.84;;;5.43;86.19
17230;BME280;8731;50.364;8.958;2022-12-07T19:06:48;99811.41;;;5.52;86.09
17230;BME280;8731;50.364;8.958;2022-12-07T19:11:16;99807.09;;;5.51;85.90
17230;BME280;8731;50.364;8.958;2022-12-07T19:15:56;99803.19;;;5.46;86.09
17230;BME280;8731;50.364;8.958;2022-12-07T19:20:20;99805.88;;;5.47;86.29
17230;BME280;8731;50.364;8.958;2022-12-07T19:24:44;99805.19;;;5.41;86.43
17230;BME280;8731;50.364;8.958;2022-12-07T19:29:08;99800.56;;;5.37;86.08
17230;BME280;8731;50.364;8.958;2022-12-07T19:33:30;99804.00;;;5.38;86.21
17230;BME280;8731;50.364;8.958;2022-12-07T19:37:54;99807.25;;;5.37;86.04
17230;BME280;8731;50.364;8.958;2022-12-07T19:42:17;99797.16;;;5.37;86.17
17230;BME280;8731;50.364;8.958;2022-12-07T19:46:40;99793.81;;;5.29;87.32
17230;BME280;8731;50.364;8.958;2022-12-07T19:51:05;99791.63;;;5.32;87.44
17230;BME280;8731;50.364;8.958;2022-12-07T19:55:28;99785.66;;;5.16;87.73
17230;BME280;8731;50.364;8.958;2022-12-07T19:59:51;99783.97;;;5.23;87.49
17230;BME280;8731;50.364;8.958;2022-12-07T20:04:15;99786.97;;;5.28;87.90
17230;BME280;8731;50.364;8.958;2022-12-07T20:08:40;99785.94;;;5.26;88.06
17230;BME280;8731;50.364;8.958;2022-12-07T20:13:04;99774.19;;;5.27;88.42
17230;BME280;8731;50.364;8.958;2022-12-07T20:17:44;99765.75;;;5.26;88.45
17230;BME280;8731;50.364;8.958;2022-12-07T20:22:07;99771.84;;;5.28;88.96
17230;BME280;8731;50.364;8.958;2022-12-07T20:26:30;99768.25;;;5.26;88.60
17230;BME280;8731;50.364;8.958;2022-12-07T20:30:55;99773.69;;;5.06;89.91
17230;BME280;8731;50.364;8.958;2022-12-07T20:35:17;99774.84;;;5.17;89.73
17230;BME280;8731;50.364;8.958;2022-12-07T20:39:40;99765.06;;;5.20;88.95
17230;BME280;8731;50.364;8.958;2022-12-07T20:44:03;99759.31;;;5.21;90.07
17230;BME280;8731;50.364;8.958;2022-12-07T20:48:27;99762.72;;;5.21;89.26
17230;BME280;8731;50.364;8.958;2022-12-07T20:52:49;99762.00;;;5.22;89.99
17230;BME280;8731;50.364;8.958;2022-12-07T20:57:11;99756.78;;;5.21;89.87
17230;BME280;8731;50.364;8.958;2022-12-07T21:01:34;99756.59;;;5.19;89.71
17230;BME280;8731;50.364;8.958;2022-12-07T21:06:01;99759.38;;;5.14;90.66
17230;BME280;8731;50.364;8.958;2022-12-07T21:10:24;99744.88;;;5.20;90.41
17230;BME280;8731;50.364;8.958;2022-12-07T21:14:46;99743.34;;;5.13;90.28
17230;BME280;8731;50.364;8.958;2022-12-07T21:19:08;99739.44;;;5.24;90.31
17230;BME280;8731;50.364;8.958;2022-12-07T21:23:33;99729.50;;;5.26;90.86
17230;BME280;8731;50.364;8.958;2022-12-07T21:27:55;99733.09;;;5.28;90.90
17230;BME280;8731;50.364;8.958;2022-12-07T21:32:18;99736.94;;;5.24;91.06
17230;BME280;8731;50.364;8.958;2022-12-07T21:36:41;99724.47;;;5.26;90.75
17230;BME280;8731;50.364;8.958;2022-12-07T21:41:11;99721.94;;;5.26;91.06
17230;BME280;8731;50.364;8.958;2022-12-07T21:45:35;99727.00;;;5.26;91.02
17230;BME280;8731;50.364;8.958;2022-12-07T21:49:57;99717.06;;;5.27;90.67
17230;BME280;8731;50.364;8.958;2022-12-07T21:54:20;99717.94;;;5.28;90.90
17230;BME280;8731;50.364;8.958;2022-12-07T21:58:44;99718.09;;;5.29;90.51
17230;BME280;8731;50.364;8.958;2022-12-07T22:03:07;99711.84;;;5.26;91.07
17230;BME280;8731;50.364;8.958;2022-12-07T22:07:33;99716.31;;;5.28;90.44
17230;BME280;8731;50.364;8.958;2022-12-07T22:11:55;99713.47;;;5.25;91.33
17230;BME280;8731;50.364;8.958;2022-12-07T22:16:19;99714.22;;;5.24;91.15
17230;BME280;8731;50.364;8.958;2022-12-07T22:20:41;99721.03;;;5.25;90.97
17230;BME280;8731;50.364;8.958;2022-12-07T22:25:04;99718.28;;;5.15;91.79
17230;BME280;8731;50.364;8.958;2022-12-07T22:29:28;99719.25;;;5.24;91.49
17230;BME280;8731;50.364;8.958;2022-12-07T22:33:52;99707.75;;;5.19;91.22
17230;BME280;8731;50.364;8.958;2022-12-07T22:38:14;99699.66;;;5.06;91.08
17230;BME280;8731;50.364;8.958;2022-12-07T22:42:36;99692.81;;;5.20;91.08
17230;BME280;8731;50.364;8.958;2022-12-07T22:46:59;99685.94;;;5.19;91.57
17230;BME280;8731;50.364;8.958;2022-12-07T22:51:24;99677.56;;;5.12;91.44
17230;BME280;8731;50.364;8.958;2022-12-07T22:55:48;99691.56;;;5.17;91.46
17230;BME280;8731;50.364;8.958;2022-12-07T23:00:12;99680.56;;;5.16;91.75
17230;BME280;8731;50.364;8.958;2022-12-07T23:04:35;99674.78;;;5.17;91.84
17230;BME280;8731;50.364;8.958;2022-12-07T23:09:00;99670.66;;;5.18;91.18
17230;BME280;8731;50.364;8.958;2022-12-07T23:13:25;99669.69;;;5.09;92.01
17230;BME280;8731;50.364;8.958;2022-12-07T23:17:55;99664.50;;;5.07;91.77
17230;BME280;8731;50.364;8.958;2022-12-07T23:22:18;99664.81;;;5.10;91.82
17230;BME280;8731;50.364;8.958;2022-12-07T23:26:43;99660.34;;;5.08;91.60
17230;BME280;8731;50.364;8.958;2022-12-07T23:31:09;99654.97;;;5.05;91.14
17230;BME280;8731;50.364;8.958;2022-12-07T23:35:33;99656.69;;;4.97;91.79
17230;BME280;8731;50.364;8.958;2022-12-07T23:39:55;99655.78;;;4.97;91.54
17230;BME280;8731;50.364;8.958;2022-12-07T23:44:19;99651.41;;;5.03;91.73
17230;BME280;8731;50.364;8.958;2022-12-07T23:48:42;99635.78;;;4.98;91.32
17230;BME280;8731;50.364;8.958;2022-12-07T23:53:04;99640.63;;;4.97;92.27
17230;BME280;8731;50.364;8.958;2022-12-07T23:57:26;99634.97;;;4.90;92.00
